Time;durP1;ratioP1;P1;durP2;ratioP2;P2;SDS_P1;SDS_P2;PMS_P1;PMS_P2;Temp;Humidity;BMP_temperature;BMP_pressure;BME280_temperature;BME280_humidity;BME280_pressure;Samples;Min_cycle;Max_cycle;Signal;HPM_P1;HPM_P2
2023/02/25 00:00:25;;;;;;;14.05;7.90;;;6.90;86.20;;;;;;5010657;28;20052;-61
2023/02/25 00:02:51;;;;;;;15.68;7.97;;;6.90;86.30;;;;;;5009026;28;20506;-59
2023/02/25 00:05:17;;;;;;;11.38;7.28;;;6.90;86.30;;;;;;5015174;28;20037;-60
2023/02/25 00:07:44;;;;;;;10.65;6.30;;;6.90;86.00;;;;;;5009013;28;20045;-59
2023/02/25 00:10:11;;;;;;;7.40;4.85;;;6.80;85.90;;;;;;5011154;28;20244;-60
2023/02/25 00:12:38;;;;;;;6.93;4.25;;;6.80;85.40;;;;;;5009673;28;20026;-59
2023/02/25 00:15:05;;;;;;;6.35;4.35;;;6.80;85.00;;;;;;5014606;28;20037;-60
2023/02/25 00:17:31;;;;;;;6.22;4.00;;;6.70;85.00;;;;;;5016494;28;20084;-61
2023/02/25 00:19:57;;;;;;;6.65;4.22;;;6.70;85.20;;;;;;5020167;28;20064;-61
2023/02/25 00:22:24;;;;;;;6.85;3.92;;;6.60;85.20;;;;;;5019950;28;20030;-61
2023/02/25 00:24:54;;;;;;;4.28;3.50;;;6.60;85.30;;;;;;5020629;28;20041;-61
2023/02/25 00:27:20;;;;;;;3.92;3.30;;;6.60;85.30;;;;;;5019627;28;20583;-61
2023/02/25 00:29:45;;;;;;;3.63;2.67;;;6.50;85.10;;;;;;5020124;28;20413;-59
2023/02/25 00:32:11;;;;;;;3.38;2.72;;;6.50;85.10;;;;;;5015483;28;20044;-61
2023/02/25 00:34:36;;;;;;;2.72;2.42;;;6.40;84.80;;;;;;5014734;28;20061;-58
2023/02/25 00:37:03;;;;;;;3.22;2.67;;;6.40;84.90;;;;;;5014835;28;20041;-60
2023/02/25 00:39:40;;;;;;;3.00;2.70;;;6.30;84.90;;;;;;5014415;28;20169;-60
2023/02/25 00:42:10;;;;;;;2.97;2.67;;;6.20;84.70;;;;;;5005519;28;20237;-61
2023/02/25 00:44:36;;;;;;;2.58;2.38;;;6.20;84.90;;;;;;5006357;28;20034;-57
2023/02/25 00:47:02;;;;;;;2.55;2.22;;;6.10;85.30;;;;;;5007088;28;20033;-60
2023/02/25 00:49:28;;;;;;;3.42;2.10;;;6.10;85.40;;;;;;5007745;28;20117;-59
2023/02/25 00:51:54;;;;;;;2.35;2.15;;;6.00;85.40;;;;;;5008073;28;20040;-59
2023/02/25 00:54:20;;;;;;;2.88;2.40;;;6.00;85.30;;;;;;5013079;28;20038;-61
2023/02/25 00:56:46;;;;;;;2.50;2.30;;;6.00;85.40;;;;;;5009119;28;20048;-58
2023/02/25 00:59:12;;;;;;;2.80;2.55;;;6.00;85.20;;;;;;5012681;28;20080;-59
2023/02/25 01:01:37;;;;;;;3.22;2.70;;;5.90;85.00;;;;;;5006971;28;20038;-58
2023/02/25 01:04:04;;;;;;;2.75;2.55;;;5.90;85.00;;;;;;5014577;28;20041;-59
2023/02/25 01:06:31;;;;;;;3.08;2.60;;;6.00;85.30;;;;;;5008602;28;20049;-57
2023/02/25 01:08:58;;;;;;;3.88;3.35;;;5.90;85.00;;;;;;5009875;28;20121;-56
2023/02/25 01:11:29;;;;;;;5.07;3.85;;;5.80;85.10;;;;;;5006189;28;20544;-60
2023/02/25 01:14:00;;;;;;;5.55;4.13;;;5.80;85.00;;;;;;5011779;28;20087;-60
2023/02/25 01:16:29;;;;;;;5.10;3.90;;;5.80;85.10;;;;;;5013428;28;20033;-58
2023/02/25 01:18:57;;;;;;;4.13;3.67;;;5.80;85.10;;;;;;5009093;28;20077;-59
2023/02/25 01:21:26;;;;;;;4.55;3.78;;;5.70;85.20;;;;;;5008707;28;20061;-59
2023/02/25 01:23:59;;;;;;;5.40;4.22;;;5.80;85.60;;;;;;5007426;28;20041;-59
2023/02/25 01:26:26;;;;;;;6.00;3.97;;;5.70;85.60;;;;;;5010439;28;20026;-58
2023/02/25 01:28:52;;;;;;;5.70;4.40;;;5.70;85.40;;;;;;5005619;28;20754;-58
2023/02/25 01:31:23;;;;;;;6.82;4.70;;;5.70;85.20;;;;;;5007505;28;20033;-59
2023/02/25 01:33:50;;;;;;;5.93;4.65;;;5.70;85.30;;;;;;5007152;28;20485;-61
2023/02/25 01:36:16;;;;;;;6.20;4.60;;;5.70;85.30;;;;;;5007861;28;20038;-59
2023/02/25 01:38:41;;;;;;;5.80;4.50;;;5.60;85.10;;;;;;5010867;28;20042;-60
2023/02/25 01:41:07;;;;;;;6.22;4.38;;;5.60;85.30;;;;;;5007304;28;20524;-59
2023/02/25 01:43:33;;;;;;;6.53;4.43;;;5.60;85.30;;;;;;5004758;28;20045;-56
2023/02/25 01:45:59;;;;;;;5.30;4.40;;;5.60;85.30;;;;;;5012699;28;20117;-59
2023/02/25 01:48:30;;;;;;;6.20;4.50;;;5.60;85.20;;;;;;5005490;28;20068;-59
2023/02/25 01:51:02;;;;;;;7.13;4.75;;;5.50;85.30;;;;;;5010406;28;20045;-58
2023/02/25 01:53:39;;;;;;;6.82;4.50;;;5.50;85.60;;;;;;5006650;28;20038;-59
2023/02/25 01:56:06;;;;;;;5.65;4.40;;;5.50;85.80;;;;;;5013889;28;20038;-60
2023/02/25 01:58:33;;;;;;;7.38;4.53;;;5.50;85.80;;;;;;5012511;28;20072;-59
2023/02/25 02:00:59;;;;;;;6.18;4.60;;;5.40;85.90;;;;;;5017901;28;20440;-57
2023/02/25 02:03:29;;;;;;;5.60;4.30;;;5.50;86.00;;;;;;5020464;28;20470;-59
2023/02/25 02:05:58;;;;;;;7.05;4.50;;;5.50;86.10;;;;;;5012839;28;20037;-62
2023/02/25 02:08:25;;;;;;;6.32;4.38;;;5.50;86.10;;;;;;5014561;28;20049;-60
2023/02/25 02:10:51;;;;;;;5.75;4.30;;;5.50;86.00;;;;;;5008039;28;20075;-60
2023/02/25 02:13:17;;;;;;;5.75;4.43;;;5.50;86.10;;;;;;5004783;28;20492;-60
2023/02/25 02:16:07;;;;;;;5.57;4.38;;;5.50;86.10;;;;;;5007533;28;20060;-57
2023/02/25 02:18:35;;;;;;;6.72;4.50;;;5.50;86.10;;;;;;5005558;28;20536;-61
2023/02/25 02:21:25;;;;;;;6.75;4.85;;;5.50;86.00;;;;;;5007526;28;20056;-60
2023/02/25 02:24:20;;;;;;;5.85;4.50;;;5.50;86.30;;;;;;5007736;28;20401;-61
2023/02/25 02:26:48;;;;;;;5.47;4.32;;;5.50;86.10;;;;;;5004404;28;20064;-59
2023/02/25 02:29:53;;;;;;;6.32;4.10;;;5.50;85.90;;;;;;5006207;28;20033;-59
2023/02/25 02:32:32;;;;;;;6.82;4.25;;;5.50;86.50;;;;;;5004231;28;20030;-60
2023/02/25 02:35:19;;;;;;;6.00;4.20;;;5.50;86.40;;;;;;5008756;28;20121;-59
2023/02/25 02:38:00;;;;;;;7.57;4.47;;;5.50;86.50;;;;;;5008602;28;20041;-61
2023/02/25 02:40:56;;;;;;;5.05;4.03;;;5.50;86.50;;;;;;5010862;28;20030;-61
2023/02/25 02:43:56;;;;;;;5.95;4.40;;;5.60;86.60;;;;;;5009637;28;20160;-59
2023/02/25 02:46:26;;;;;;;5.68;4.40;;;5.60;86.60;;;;;;5011234;28;20021;-61
2023/02/25 02:49:10;;;;;;;5.90;4.40;;;5.60;86.30;;;;;;4997869;28;20038;-58
2023/02/25 02:51:46;;;;;;;6.22;4.45;;;5.70;86.50;;;;;;5009143;28;20041;-62
2023/02/25 02:54:13;;;;;;;6.63;4.32;;;5.70;86.10;;;;;;5011778;28;20041;-60
2023/02/25 02:56:42;;;;;;;4.70;4.10;;;5.70;85.90;;;;;;5011175;28;20065;-60
2023/02/25 02:59:41;;;;;;;5.13;4.20;;;5.70;85.90;;;;;;5012783;28;20475;-60
2023/02/25 03:02:13;;;;;;;5.40;4.07;;;5.70;86.30;;;;;;5011627;28;20350;-60
2023/02/25 03:04:42;;;;;;;5.60;4.38;;;5.70;86.00;;;;;;5006437;28;20043;-60
2023/02/25 03:07:11;;;;;;;5.25;3.78;;;5.70;86.00;;;;;;5013106;28;20104;-60
2023/02/25 03:09:50;;;;;;;5.50;4.47;;;5.70;85.90;;;;;;5015772;28;20034;-59
2023/02/25 03:12:16;;;;;;;6.20;4.40;;;5.70;86.00;;;;;;5003530;28;20048;-59
2023/02/25 03:14:41;;;;;;;6.32;4.50;;;5.70;85.80;;;;;;5011796;28;20049;-59
2023/02/25 03:17:17;;;;;;;6.22;4.38;;;5.70;85.90;;;;;;5006666;28;20076;-59
2023/02/25 03:19:49;;;;;;;5.63;4.35;;;5.70;85.90;;;;;;5006016;28;20466;-59
2023/02/25 03:22:19;;;;;;;7.68;4.72;;;5.60;85.80;;;;;;5006520;28;20072;-58
2023/02/25 03:24:52;;;;;;;5.25;4.25;;;5.60;85.90;;;;;;5008796;28;20042;-59
2023/02/25 03:27:27;;;;;;;5.57;4.18;;;5.70;86.10;;;;;;5007269;28;20079;-57
2023/02/25 03:29:59;;;;;;;6.10;4.32;;;5.70;86.10;;;;;;5006080;28;20038;-58
2023/02/25 03:32:27;;;;;;;4.78;4.00;;;5.60;85.90;;;;;;5007286;28;20060;-59
2023/02/25 03:34:56;;;;;;;5.10;3.80;;;5.60;85.80;;;;;;5010309;28;20030;-60
2023/02/25 03:37:28;;;;;;;6.90;4.47;;;5.70;85.90;;;;;;5010351;28;20041;-58
2023/02/25 03:39:57;;;;;;;5.45;4.32;;;5.70;86.00;;;;;;5011139;28;20492;-60
2023/02/25 03:42:29;;;;;;;5.43;4.47;;;5.70;86.10;;;;;;5010275;28;20111;-60
2023/02/25 03:45:00;;;;;;;6.25;4.28;;;5.70;86.10;;;;;;5007875;28;20476;-58
2023/02/25 03:47:29;;;;;;;6.05;5.03;;;5.70;86.00;;;;;;5008292;28;20136;-58
2023/02/25 03:50:12;;;;;;;6.13;5.00;;;5.70;85.90;;;;;;5010808;28;20100;-59
2023/02/25 03:52:39;;;;;;;6.60;5.28;;;5.70;85.90;;;;;;5012124;28;20034;-59
2023/02/25 03:55:06;;;;;;;8.13;5.53;;;5.60;85.70;;;;;;5011830;28;20091;-58
2023/02/25 03:57:38;;;;;;;9.00;5.60;;;5.70;85.60;;;;;;5013230;28;20521;-59
2023/02/25 04:00:16;;;;;;;7.93;5.72;;;5.60;85.60;;;;;;5010323;28;20094;-60
2023/02/25 04:02:43;;;;;;;7.68;5.40;;;5.60;85.60;;;;;;5009341;28;20065;-59
2023/02/25 04:05:09;;;;;;;7.25;5.43;;;5.60;85.60;;;;;;5011456;28;20172;-61
2023/02/25 04:07:35;;;;;;;6.78;5.63;;;5.60;85.50;;;;;;5011361;28;20561;-56
2023/02/25 04:10:02;;;;;;;8.43;5.65;;;5.60;85.80;;;;;;5011044;28;20038;-58
2023/02/25 04:12:28;;;;;;;9.80;6.20;;;5.50;85.60;;;;;;5007798;28;20132;-58
2023/02/25 04:14:53;;;;;;;7.18;5.63;;;5.50;85.70;;;;;;5008865;28;20043;-60
2023/02/25 04:17:19;;;;;;;8.55;6.00;;;5.50;85.70;;;;;;5009752;28;20034;-58
2023/02/25 04:19:44;;;;;;;8.90;5.80;;;5.50;85.60;;;;;;5003482;28;20064;-59
2023/02/25 04:22:10;;;;;;;8.18;5.40;;;5.50;85.60;;;;;;5009586;28;20034;-60
2023/02/25 04:24:35;;;;;;;9.50;6.05;;;5.50;85.70;;;;;;5004290;28;20069;-59
2023/02/25 04:27:02;;;;;;;7.80;5.85;;;5.50;85.60;;;;;;5005815;28;20029;-59
2023/02/25 04:29:28;;;;;;;7.63;5.32;;;5.50;85.70;;;;;;5005979;28;20034;-59
2023/02/25 04:31:54;;;;;;;9.23;6.80;;;5.50;85.80;;;;;;5002403;28;20041;-58
2023/02/25 04:34:20;;;;;;;9.48;6.60;;;5.50;85.90;;;;;;5009458;28;20033;-60
2023/02/25 04:36:46;;;;;;;8.65;5.63;;;5.50;86.10;;;;;;5007596;28;20149;-59
2023/02/25 04:39:14;;;;;;;8.80;6.32;;;5.60;86.10;;;;;;5006430;28;20044;-60
2023/02/25 04:41:39;;;;;;;9.43;6.30;;;5.60;86.10;;;;;;5005195;28;20045;-59
2023/02/25 04:44:06;;;;;;;8.05;6.10;;;5.60;86.00;;;;;;5007917;28;20042;-58
2023/02/25 04:46:34;;;;;;;9.50;6.07;;;5.70;85.80;;;;;;5009167;28;20044;-58
2023/02/25 04:49:00;;;;;;;8.38;6.10;;;5.70;85.70;;;;;;5009076;28;21069;-60
2023/02/25 04:51:26;;;;;;;10.00;6.60;;;5.70;85.60;;;;;;5010402;28;20065;-59
2023/02/25 04:53:52;;;;;;;10.52;6.72;;;5.70;85.60;;;;;;5010293;28;20574;-59
2023/02/25 04:56:17;;;;;;;9.75;6.65;;;5.70;85.40;;;;;;5006506;28;20449;-59
2023/02/25 04:58:44;;;;;;;9.13;6.75;;;5.70;85.30;;;;;;5006423;28;20038;-60
2023/02/25 05:01:10;;;;;;;9.50;6.63;;;5.70;86.20;;;;;;5010443;28;20413;-58
2023/02/25 05:03:36;;;;;;;8.63;6.88;;;5.60;85.30;;;;;;5005142;28;20061;-58
2023/02/25 05:06:03;;;;;;;8.23;5.93;;;5.60;85.40;;;;;;5008695;28;20140;-60
2023/02/25 05:08:29;;;;;;;8.80;5.30;;;5.60;85.40;;;;;;5011725;28;20040;-60
2023/02/25 05:10:55;;;;;;;7.43;5.07;;;5.60;85.20;;;;;;5009142;28;20112;-58
2023/02/25 05:13:21;;;;;;;5.88;4.22;;;5.50;84.80;;;;;;5006567;28;20810;-59
2023/02/25 05:15:47;;;;;;;7.20;3.70;;;5.50;84.70;;;;;;5010690;28;20034;-58
2023/02/25 05:18:13;;;;;;;5.90;3.60;;;5.40;83.60;;;;;;5005343;28;20136;-60
2023/02/25 05:20:43;;;;;;;5.28;3.00;;;5.40;83.50;;;;;;5005179;28;20034;-61
2023/02/25 05:23:09;;;;;;;6.25;3.45;;;5.30;83.30;;;;;;5011117;28;20689;-60
2023/02/25 05:25:40;;;;;;;5.20;3.50;;;5.20;83.30;;;;;;5011628;28;20046;-59
2023/02/25 05:28:09;;;;;;;5.60;3.03;;;5.10;83.50;;;;;;5009576;28;20049;-61
2023/02/25 05:30:37;;;;;;;5.78;3.20;;;5.00;83.90;;;;;;5009831;28;20790;-60
2023/02/25 05:33:03;;;;;;;6.32;3.15;;;4.90;84.00;;;;;;5011584;28;20104;-56
2023/02/25 05:35:31;;;;;;;4.88;3.30;;;4.80;84.20;;;;;;5012396;28;20140;-56
2023/02/25 05:37:57;;;;;;;5.57;3.08;;;4.80;84.60;;;;;;5011995;28;20026;-61
2023/02/25 05:40:23;;;;;;;5.50;3.30;;;4.70;84.70;;;;;;5010116;28;20048;-60
2023/02/25 05:42:48;;;;;;;7.38;3.70;;;4.80;84.80;;;;;;5006034;28;20057;-60
2023/02/25 05:45:15;;;;;;;6.28;3.25;;;4.70;84.90;;;;;;5011202;28;20040;-59
2023/02/25 05:47:40;;;;;;;8.23;4.00;;;4.70;84.90;;;;;;5003854;28;20049;-61
2023/02/25 05:50:06;;;;;;;5.03;3.40;;;4.70;84.70;;;;;;5004826;28;20041;-55
2023/02/25 05:52:32;;;;;;;4.68;3.45;;;4.70;84.90;;;;;;5011425;28;20133;-58
2023/02/25 05:54:57;;;;;;;5.50;3.25;;;4.70;85.40;;;;;;5012822;28;20698;-59
2023/02/25 05:57:24;;;;;;;4.97;3.30;;;4.70;84.80;;;;;;5013987;28;20045;-61
2023/02/25 05:59:50;;;;;;;6.65;3.08;;;4.70;84.80;;;;;;5010860;28;20146;-61
2023/02/25 06:02:15;;;;;;;5.95;3.35;;;4.80;84.70;;;;;;5013322;28;20122;-59
2023/02/25 06:04:41;;;;;;;5.07;3.15;;;4.80;84.60;;;;;;5012737;28;20042;-60
2023/02/25 06:07:07;;;;;;;6.85;3.25;;;4.80;84.60;;;;;;5013700;28;20064;-61
2023/02/25 06:09:33;;;;;;;8.50;3.33;;;4.80;84.30;;;;;;5015910;28;20263;-57
2023/02/25 06:11:59;;;;;;;5.20;3.65;;;4.80;84.20;;;;;;5006673;28;20534;-59
2023/02/25 06:14:25;;;;;;;7.88;3.30;;;4.80;84.30;;;;;;5013046;28;20080;-59
2023/02/25 06:16:55;;;;;;;8.75;3.40;;;4.90;84.50;;;;;;5009630;28;20063;-58
2023/02/25 06:19:21;;;;;;;5.88;2.88;;;4.80;84.40;;;;;;5007895;28;20394;-58
2023/02/25 06:21:47;;;;;;;7.82;3.58;;;4.90;84.40;;;;;;5007333;28;20044;-59
2023/02/25 06:24:14;;;;;;;8.80;3.40;;;4.90;84.50;;;;;;5006802;28;20038;-59
2023/02/25 06:26:41;;;;;;;4.97;3.28;;;5.00;84.30;;;;;;5006763;28;20034;-60
2023/02/25 06:29:08;;;;;;;6.60;3.20;;;5.00;84.00;;;;;;5006510;28;20122;-60
2023/02/25 06:31:33;;;;;;;6.20;3.60;;;5.00;84.00;;;;;;5011962;28;20029;-59
2023/02/25 06:33:59;;;;;;;7.15;3.95;;;5.10;84.30;;;;;;5005855;28;20034;-58
2023/02/25 06:36:24;;;;;;;6.45;3.38;;;5.10;84.10;;;;;;5009146;28;20061;-59
2023/02/25 06:38:50;;;;;;;6.13;3.53;;;5.10;83.80;;;;;;5006010;28;20563;-60
2023/02/25 06:41:18;;;;;;;5.03;3.53;;;5.10;83.90;;;;;;5007286;28;20037;-57
2023/02/25 06:43:44;;;;;;;8.05;3.40;;;5.10;83.90;;;;;;5007236;28;20953;-58
2023/02/25 06:46:12;;;;;;;5.50;3.35;;;5.20;84.20;;;;;;5007177;28;20128;-58
2023/02/25 06:48:38;;;;;;;6.70;3.53;;;5.20;84.20;;;;;;5004636;28;20093;-58
2023/02/25 06:51:08;;;;;;;7.55;3.70;;;5.30;84.30;;;;;;5003967;28;20076;-60
2023/02/25 06:53:35;;;;;;;9.90;4.03;;;5.30;84.00;;;;;;5006910;28;20042;-60
2023/02/25 06:56:01;;;;;;;7.18;3.80;;;5.30;83.80;;;;;;5011582;28;20580;-59
2023/02/25 06:58:26;;;;;;;8.02;4.05;;;5.40;83.60;;;;;;5016526;28;20041;-58
2023/02/25 07:00:52;;;;;;;8.10;4.10;;;5.40;83.40;;;;;;5017189;28;20084;-59
2023/02/25 07:03:18;;;;;;;9.57;4.15;;;5.40;83.40;;;;;;5014177;28;20029;-60
2023/02/25 07:05:43;;;;;;;10.57;4.10;;;5.40;83.30;;;;;;5011234;28;20811;-59
2023/02/25 07:08:09;;;;;;;8.48;3.92;;;5.40;83.20;;;;;;5013550;28;20041;-56
2023/02/25 07:10:35;;;;;;;8.63;4.00;;;5.40;83.20;;;;;;5010211;28;20091;-61
2023/02/25 07:13:00;;;;;;;5.85;3.60;;;5.40;83.10;;;;;;5004306;28;20448;-58
2023/02/25 07:15:26;;;;;;;5.15;3.38;;;5.40;82.90;;;;;;5007835;28;20037;-60
2023/02/25 07:17:51;;;;;;;6.00;2.95;;;5.40;82.60;;;;;;5009365;28;20077;-58
2023/02/25 07:20:17;;;;;;;7.45;3.35;;;5.40;82.60;;;;;;5006864;28;20044;-58
2023/02/25 07:22:43;;;;;;;8.27;3.45;;;5.40;82.40;;;;;;5003792;28;20050;-60
2023/02/25 07:25:12;;;;;;;8.02;3.58;;;5.30;82.10;;;;;;5007238;28;20589;-58
2023/02/25 07:27:42;;;;;;;5.72;3.10;;;5.30;82.10;;;;;;5007333;28;20038;-60
2023/02/25 07:30:12;;;;;;;6.70;2.90;;;5.30;82.00;;;;;;5003285;28;20036;-60
2023/02/25 07:32:38;;;;;;;5.20;2.60;;;5.30;82.20;;;;;;5009976;28;20506;-59
2023/02/25 07:35:04;;;;;;;7.32;2.55;;;5.20;82.00;;;;;;5002952;28;20038;-58
2023/02/25 07:37:30;;;;;;;8.02;1.90;;;5.20;81.30;;;;;;5005176;28;20034;-60
2023/02/25 07:39:58;;;;;;;9.57;1.92;;;5.20;80.60;;;;;;5007984;28;20080;-60
2023/02/25 07:42:27;;;;;;;5.32;1.73;;;5.10;80.40;;;;;;4988688;28;21037;-58
2023/02/25 07:44:53;;;;;;;7.53;1.92;;;5.10;80.20;;;;;;5002998;28;20050;-60
2023/02/25 07:47:20;;;;;;;5.35;1.60;;;5.10;79.90;;;;;;4995879;28;20543;-61
2023/02/25 07:49:46;;;;;;;5.30;1.90;;;5.00;79.50;;;;;;5004131;28;20046;-59
2023/02/25 07:52:12;;;;;;;3.00;1.30;;;5.00;79.50;;;;;;5005018;28;20125;-59
2023/02/25 07:54:38;;;;;;;5.55;1.50;;;5.00;79.50;;;;;;5005605;28;20040;-59
2023/02/25 07:57:03;;;;;;;8.95;1.65;;;5.00;79.30;;;;;;5002224;28;20131;-59
2023/02/25 07:59:32;;;;;;;4.57;2.00;;;5.00;79.50;;;;;;5006604;28;20040;-59
2023/02/25 08:01:57;;;;;;;5.03;3.30;;;4.90;79.60;;;;;;5003085;28;20059;-59
2023/02/25 08:04:23;;;;;;;5.03;1.98;;;4.90;79.50;;;;;;5000713;28;20397;-60
2023/02/25 08:06:50;;;;;;;4.65;2.08;;;4.90;79.90;;;;;;5006551;28;20030;-59
2023/02/25 08:09:16;;;;;;;4.50;1.83;;;4.90;79.50;;;;;;4996505;28;20593;-59
2023/02/25 08:11:42;;;;;;;3.22;1.70;;;4.90;79.50;;;;;;4995234;28;20095;-59
2023/02/25 08:14:09;;;;;;;6.20;1.55;;;4.90;79.60;;;;;;5006598;28;20121;-61
2023/02/25 08:16:36;;;;;;;5.70;1.52;;;4.90;79.90;;;;;;5008624;28;20030;-58
2023/02/25 08:19:04;;;;;;;4.25;1.30;;;4.90;79.70;;;;;;5003326;28;20541;-58
2023/02/25 08:21:30;;;;;;;6.97;2.63;;;4.90;79.70;;;;;;5007699;28;20393;-60
2023/02/25 08:23:56;;;;;;;5.05;1.58;;;5.00;79.70;;;;;;5012804;28;20123;-58
2023/02/25 08:26:24;;;;;;;5.03;1.50;;;5.00;79.50;;;;;;5005352;28;20792;-59
2023/02/25 08:28:50;;;;;;;10.30;4.07;;;5.00;79.10;;;;;;5003704;28;20485;-61
2023/02/25 08:31:17;;;;;;;6.20;1.50;;;5.00;79.40;;;;;;5007529;28;20044;-58
2023/02/25 08:33:48;;;;;;;9.00;1.75;;;5.00;79.20;;;;;;5007305;28;20060;-58
2023/02/25 08:36:17;;;;;;;5.30;1.58;;;5.00;79.10;;;;;;5008977;28;20034;-58
2023/02/25 08:38:43;;;;;;;5.15;1.75;;;5.00;79.20;;;;;;5006796;28;20121;-58
2023/02/25 08:41:09;;;;;;;2.47;1.20;;;4.90;78.50;;;;;;5008451;28;20098;-59
2023/02/25 08:43:35;;;;;;;8.38;1.55;;;5.10;78.90;;;;;;5006745;28;20056;-58
2023/02/25 08:46:01;;;;;;;3.50;1.08;;;5.10;78.60;;;;;;5003917;28;20076;-58
2023/02/25 08:48:26;;;;;;;6.53;1.20;;;5.10;78.80;;;;;;5013431;28;20053;-59
2023/02/25 08:50:54;;;;;;;2.08;0.90;;;5.10;78.60;;;;;;5003161;28;20042;-60
2023/02/25 08:53:20;;;;;;;3.65;1.00;;;5.10;77.70;;;;;;5004715;28;20036;-60
2023/02/25 08:55:46;;;;;;;2.65;0.98;;;5.20;77.30;;;;;;5008978;28;20033;-59
2023/02/25 08:58:12;;;;;;;3.90;1.02;;;5.20;76.90;;;;;;5011584;28;20563;-60
2023/02/25 09:00:39;;;;;;;3.97;1.30;;;5.20;76.30;;;;;;5000154;28;20100;-60
2023/02/25 09:03:04;;;;;;;5.53;1.10;;;5.20;76.60;;;;;;5009404;28;20053;-58
2023/02/25 09:05:30;;;;;;;4.22;1.27;;;5.30;76.70;;;;;;5003797;28;20128;-58
2023/02/25 09:07:57;;;;;;;2.67;1.00;;;5.30;74.50;;;;;;5006388;28;20068;-58
2023/02/25 09:10:23;;;;;;;5.18;1.02;;;5.30;73.20;;;;;;5014818;28;20076;-58
2023/02/25 09:12:49;;;;;;;2.95;0.98;;;5.30;74.10;;;;;;5013408;28;20069;-58
2023/02/25 09:15:15;;;;;;;3.10;1.00;;;5.40;73.60;;;;;;5016016;28;20557;-58
2023/02/25 09:17:40;;;;;;;4.57;1.17;;;5.40;73.20;;;;;;5014837;28;20052;-56
2023/02/25 09:20:10;;;;;;;4.13;1.15;;;5.40;73.30;;;;;;5014477;28;20040;-58
2023/02/25 09:22:37;;;;;;;2.65;0.82;;;5.50;72.80;;;;;;5016196;28;20041;-60
2023/02/25 09:25:03;;;;;;;4.00;0.80;;;5.50;72.30;;;;;;5013693;28;20113;-60
2023/02/25 09:27:29;;;;;;;2.60;0.88;;;5.60;69.80;;;;;;5015265;28;20617;-58
2023/02/25 09:29:55;;;;;;;2.65;0.90;;;5.60;69.30;;;;;;5011500;28;20124;-59
2023/02/25 09:32:21;;;;;;;1.60;1.00;;;5.70;70.50;;;;;;5012675;28;20038;-58
2023/02/25 09:34:49;;;;;;;1.63;0.90;;;5.70;69.70;;;;;;5013587;28;21132;-59
2023/02/25 09:37:18;;;;;;;1.92;0.98;;;5.80;69.40;;;;;;5014990;28;20038;-59
2023/02/25 09:39:45;;;;;;;4.30;1.17;;;5.80;69.90;;;;;;5017269;28;20521;-59
2023/02/25 09:42:15;;;;;;;2.70;0.90;;;5.90;69.00;;;;;;5010550;28;20107;-59
2023/02/25 09:44:49;;;;;;;2.75;1.10;;;5.90;68.80;;;;;;5013990;28;20042;-59
2023/02/25 09:47:24;;;;;;;1.42;0.70;;;6.00;68.60;;;;;;5012646;28;20517;-59
2023/02/25 09:50:03;;;;;;;2.67;1.10;;;6.00;67.50;;;;;;5007691;28;20045;-58
2023/02/25 09:52:43;;;;;;;2.72;1.00;;;6.00;67.70;;;;;;5009030;28;20061;-58
2023/02/25 09:55:22;;;;;;;2.50;1.10;;;6.00;68.20;;;;;;5017387;28;20480;-59
2023/02/25 09:58:10;;;;;;;1.60;1.05;;;6.10;66.40;;;;;;5016538;28;20144;-60
2023/02/25 10:00:45;;;;;;;3.47;1.20;;;6.10;67.10;;;;;;5009361;28;20026;-60
2023/02/25 10:03:29;;;;;;;2.00;0.75;;;6.10;67.30;;;;;;5008317;28;20038;-58
2023/02/25 10:06:14;;;;;;;1.60;0.75;;;6.20;65.60;;;;;;5008270;28;20037;-59
2023/02/25 10:08:46;;;;;;;4.07;1.00;;;6.30;66.60;;;;;;5007240;28;20053;-61
2023/02/25 10:11:29;;;;;;;2.45;0.60;;;6.30;66.80;;;;;;5008377;28;20120;-58
2023/02/25 10:14:21;;;;;;;2.05;0.50;;;6.30;63.30;;;;;;5008190;28;20038;-58
2023/02/25 10:17:11;;;;;;;3.00;0.90;;;6.30;64.40;;;;;;5002204;28;20037;-59
2023/02/25 10:20:07;;;;;;;1.30;0.65;;;6.30;61.60;;;;;;5004361;28;20049;-60
2023/02/25 10:22:53;;;;;;;2.50;0.85;;;6.30;61.30;;;;;;5006989;28;20029;-58
2023/02/25 10:25:26;;;;;;;1.48;0.85;;;6.20;62.80;;;;;;5010618;28;20065;-59
2023/02/25 10:28:03;;;;;;;3.83;0.90;;;6.20;63.30;;;;;;5005086;28;20037;-59
2023/02/25 10:30:32;;;;;;;4.07;0.80;;;6.10;62.10;;;;;;5009338;28;20029;-60
2023/02/25 10:33:04;;;;;;;2.10;0.80;;;6.10;63.00;;;;;;5004182;28;20125;-58
2023/02/25 10:35:33;;;;;;;3.22;0.90;;;6.10;62.50;;;;;;5008009;28;20497;-60
2023/02/25 10:37:59;;;;;;;0.98;0.70;;;6.10;63.90;;;;;;5004873;28;20038;-59
2023/02/25 10:40:28;;;;;;;2.13;0.80;;;6.10;63.20;;;;;;5009436;28;20455;-60
2023/02/25 10:42:58;;;;;;;1.55;0.90;;;6.10;62.10;;;;;;5005730;28;20033;-59
2023/02/25 10:45:31;;;;;;;2.38;0.90;;;6.20;62.00;;;;;;5010154;28;20451;-59
2023/02/25 10:48:22;;;;;;;2.47;1.00;;;6.20;62.80;;;;;;4993460;28;20034;-59
2023/02/25 10:51:04;;;;;;;4.10;1.23;;;6.30;62.60;;;;;;5011504;28;20072;-59
2023/02/25 10:53:31;;;;;;;5.47;1.30;;;6.30;62.50;;;;;;5005341;28;20056;-58
2023/02/25 10:55:58;;;;;;;3.05;1.05;;;6.30;62.80;;;;;;5013062;28;20034;-57
2023/02/25 10:58:46;;;;;;;1.73;0.90;;;6.40;63.50;;;;;;5006451;28;20101;-60
2023/02/25 11:01:14;;;;;;;2.28;0.88;;;6.40;62.30;;;;;;5013560;28;20117;-59
2023/02/25 11:03:54;;;;;;;1.27;0.60;;;6.50;63.00;;;;;;5013586;28;20038;-59
2023/02/25 11:06:30;;;;;;;1.75;0.98;;;6.50;63.50;;;;;;5015467;28;20042;-60
2023/02/25 11:09:00;;;;;;;3.03;0.70;;;6.60;63.30;;;;;;5014115;28;20670;-61
2023/02/25 11:11:37;;;;;;;1.90;0.80;;;6.60;62.80;;;;;;5013123;28;20049;-60
2023/02/25 11:14:12;;;;;;;1.90;0.70;;;6.60;62.50;;;;;;5014305;28;20037;-60
2023/02/25 11:16:41;;;;;;;3.00;0.90;;;6.70;62.20;;;;;;5013003;28;20156;-59
2023/02/25 11:19:16;;;;;;;4.03;0.82;;;6.70;62.00;;;;;;5014203;28;20046;-60
2023/02/25 11:21:43;;;;;;;1.95;1.00;;;6.70;62.70;;;;;;5014091;28;20102;-58
2023/02/25 11:24:12;;;;;;;2.05;0.85;;;6.70;62.40;;;;;;5014527;28;20490;-60
2023/02/25 11:26:42;;;;;;;3.85;1.40;;;6.70;63.50;;;;;;5006075;28;20042;-58
2023/02/25 11:29:31;;;;;;;3.90;2.08;;;6.70;64.00;;;;;;5014899;28;20030;-58
2023/02/25 11:32:11;;;;;;;3.65;1.65;;;6.70;63.60;;;;;;5011519;28;20045;-58
2023/02/25 11:35:06;;;;;;;4.20;1.60;;;6.70;64.00;;;;;;5007207;28;20029;-59
2023/02/25 11:37:39;;;;;;;5.88;2.20;;;6.60;63.10;;;;;;5013388;28;20129;-59
2023/02/25 11:40:19;;;;;;;4.47;1.50;;;6.60;63.50;;;;;;5012093;28;20057;-60
2023/02/25 11:43:04;;;;;;;2.97;1.00;;;6.50;63.00;;;;;;5006409;28;20531;-57
2023/02/25 11:45:37;;;;;;;3.13;1.13;;;6.50;63.90;;;;;;5014952;28;20073;-59
2023/02/25 11:48:05;;;;;;;2.95;0.90;;;6.50;63.70;;;;;;5007378;28;20045;-59
2023/02/25 11:50:59;;;;;;;1.55;0.77;;;6.40;62.90;;;;;;5004381;28;20029;-58
2023/02/25 11:54:19;;;;;;;2.90;1.33;;;6.40;61.60;;;;;;5005573;28;20496;-58
2023/02/25 11:56:51;;;;;;;0.98;0.68;;;6.30;59.10;;;;;;4978033;28;20066;-59
2023/02/25 11:59:47;;;;;;;2.58;0.93;;;6.30;61.40;;;;;;5012073;28;20599;-58
2023/02/25 12:02:19;;;;;;;3.20;1.20;;;6.20;61.80;;;;;;5013771;28;20042;-60
2023/02/25 12:04:53;;;;;;;3.50;1.65;;;6.10;61.60;;;;;;5012984;28;20111;-57
2023/02/25 12:07:28;;;;;;;2.63;1.20;;;6.10;64.10;;;;;;5015319;28;20037;-55
2023/02/25 12:09:53;;;;;;;3.40;1.13;;;6.20;62.40;;;;;;5014302;28;20038;-59
2023/02/25 12:12:28;;;;;;;6.03;1.20;;;6.10;62.70;;;;;;5013518;28;21498;-58
2023/02/25 12:15:12;;;;;;;;;;;6.10;62.80;;;;;;5011706;28;20037;-59
2023/02/25 12:18:02;;;;;;;3.17;1.60;;;6.10;61.70;;;;;;5011027;28;19913;-58
2023/02/25 12:20:57;;;;;;;2.15;1.35;;;6.10;63.60;;;;;;5012737;28;20413;-61
2023/02/25 12:23:38;;;;;;;4.53;1.38;;;6.10;62.10;;;;;;5016474;28;20045;-60
2023/02/25 12:26:13;;;;;;;3.38;1.30;;;6.10;62.80;;;;;;5014157;28;20071;-60
2023/02/25 12:29:13;;;;;;;2.38;1.10;;;6.00;63.00;;;;;;5013173;28;20053;-60
2023/02/25 12:31:54;;;;;;;2.55;1.30;;;6.10;62.10;;;;;;5014585;28;20041;-60
2023/02/25 12:34:31;;;;;;;2.60;1.30;;;6.10;62.00;;;;;;5015010;28;20101;-58
2023/02/25 12:36:59;;;;;;;3.60;1.45;;;6.10;62.50;;;;;;5013584;28;20168;-59
2023/02/25 12:40:02;;;;;;;1.83;1.30;;;6.20;63.50;;;;;;5014949;28;20025;-60
2023/02/25 12:42:48;;;;;;;4.22;1.23;;;6.30;62.30;;;;;;4985047;28;20038;-61
2023/02/25 12:45:38;;;;;;;2.30;1.20;;;6.40;61.60;;;;;;5015858;28;20044;-59
2023/02/25 12:48:23;;;;;;;3.63;1.10;;;6.40;61.80;;;;;;5014623;28;20491;-60
2023/02/25 12:51:12;;;;;;;2.37;1.00;;;6.50;62.30;;;;;;5013887;28;20037;-59
2023/02/25 12:53:49;;;;;;;2.63;1.10;;;6.50;62.50;;;;;;5010721;28;20042;-59
2023/02/25 12:56:46;;;;;;;2.55;0.95;;;6.60;62.80;;;;;;5012853;28;20026;-58
2023/02/25 12:59:29;;;;;;;2.70;1.20;;;6.60;61.80;;;;;;5013042;28;20034;-59
2023/02/25 13:02:27;;;;;;;4.03;1.38;;;6.70;60.50;;;;;;5009720;28;20120;-56
2023/02/25 13:04:56;;;;;;;5.00;1.25;;;6.70;62.20;;;;;;5011623;28;20050;-60
2023/02/25 13:07:23;;;;;;;3.30;1.00;;;6.80;62.90;;;;;;5013436;28;20033;-58
2023/02/25 13:10:17;;;;;;;4.03;1.02;;;6.80;62.40;;;;;;5017985;28;20188;-60
2023/02/25 13:13:09;;;;;;;4.90;1.60;;;6.90;59.40;;;;;;5007225;28;20041;-60
2023/02/25 13:15:54;;;;;;;3.53;1.33;;;6.80;59.60;;;;;;5016766;28;20076;-59
2023/02/25 13:18:49;;;;;;;3.60;1.23;;;6.90;59.20;;;;;;5016825;28;20030;-59